createdAt,value
2023-03-27T00:01:33.100Z,4.80
2023-03-27T00:04:03.788Z,4.72
2023-03-27T00:06:34.911Z,2.22
2023-03-27T00:09:06.476Z,5.40
2023-03-27T00:11:35.062Z,4.35
2023-03-27T00:14:08.424Z,4.10
2023-03-27T00:16:44.764Z,4.75
2023-03-27T00:21:48.979Z,6.47
2023-03-27T00:24:17.534Z,12.18
2023-03-27T00:26:45.379Z,10.98
2023-03-27T00:29:13.637Z,9.07
2023-03-27T00:31:43.582Z,9.43
2023-03-27T00:34:13.687Z,10.27
2023-03-27T00:36:43.968Z,10.95
2023-03-27T00:39:11.892Z,10.40
2023-03-27T00:41:45.687Z,13.18
2023-03-27T00:44:34.744Z,11.40
2023-03-27T00:47:05.776Z,14.15
2023-03-27T00:49:36.849Z,10.48
2023-03-27T00:52:09.058Z,10.25
2023-03-27T00:54:39.476Z,12.07
2023-03-27T00:57:13.209Z,13.27
2023-03-27T00:59:50.317Z,16.50
2023-03-27T01:02:21.081Z,21.52
2023-03-27T01:04:51.013Z,12.75
2023-03-27T01:07:23.026Z,10.35
2023-03-27T01:09:53.964Z,13.90
2023-03-27T01:12:56.974Z,27.50
2023-03-27T01:15:24.809Z,15.43
2023-03-27T01:18:43.084Z,11.65
2023-03-27T01:21:16.783Z,12.50
2023-03-27T01:24:15.251Z,8.23
2023-03-27T01:26:58.404Z,19.10
2023-03-27T01:30:05.909Z,11.88
2023-03-27T01:32:54.265Z,18.67
2023-03-27T01:35:52.769Z,10.45
2023-03-27T01:38:41.494Z,11.35
2023-03-27T01:41:21.420Z,11.63
2023-03-27T01:46:46.316Z,14.98
2023-03-27T01:49:24.953Z,12.10
2023-03-27T01:52:05.104Z,12.57
2023-03-27T01:54:39.960Z,12.43
2023-03-27T01:57:48.761Z,8.50
2023-03-27T02:02:58.313Z,16.30
2023-03-27T02:05:36.064Z,12.10
2023-03-27T02:08:36.149Z,10.52
2023-03-27T02:11:23.799Z,9.97
2023-03-27T02:13:57.746Z,12.70
2023-03-27T02:16:34.865Z,10.90
2023-03-27T02:19:08.537Z,6.40
2023-03-27T02:21:36.220Z,19.05
2023-03-27T02:24:09.579Z,9.93
2023-03-27T02:26:39.203Z,9.15
2023-03-27T02:29:15.618Z,12.88
2023-03-27T02:31:57.865Z,11.35
2023-03-27T02:34:38.489Z,14.82
2023-03-27T02:37:21.635Z,12.27
2023-03-27T02:40:40.245Z,7.05
2023-03-27T02:43:59.662Z,6.68
2023-03-27T02:46:52.375Z,10.60
2023-03-27T02:49:31.734Z,9.87
2023-03-27T02:52:12.870Z,10.02
2023-03-27T02:54:47.131Z,16.13
2023-03-27T02:57:24.942Z,5.55
2023-03-27T03:00:26.396Z,7.78
2023-03-27T03:03:28.277Z,13.60
2023-03-27T03:06:11.644Z,12.95
2023-03-27T03:08:47.231Z,12.73
2023-03-27T03:11:15.966Z,10.50
2023-03-27T03:13:44.437Z,8.60
2023-03-27T03:16:13.532Z,8.07
2023-03-27T03:18:42.076Z,9.82
2023-03-27T03:21:11.232Z,12.73
2023-03-27T03:23:39.800Z,6.28
2023-03-27T03:26:07.867Z,8.05
2023-03-27T03:29:00.661Z,6.72
2023-03-27T03:34:19.013Z,8.65
2023-03-27T03:36:49.747Z,8.63
2023-03-27T03:39:23.288Z,4.40
2023-03-27T03:41:51.308Z,12.80
2023-03-27T03:44:19.784Z,5.03
2023-03-27T03:46:47.885Z,3.42
2023-03-27T03:49:23.226Z,9.20
2023-03-27T03:52:03.370Z,5.20
2023-03-27T03:54:33.232Z,6.63
2023-03-27T03:57:01.431Z,12.23
2023-03-27T03:59:30.395Z,12.55
2023-03-27T04:02:28.785Z,11.98
2023-03-27T04:05:21.416Z,3.40
2023-03-27T04:07:56.414Z,5.28
2023-03-27T04:10:41.611Z,9.02
2023-03-27T04:13:18.923Z,11.98
2023-03-27T04:18:41.379Z,8.45
2023-03-27T04:21:16.416Z,9.25
2023-03-27T04:23:51.566Z,12.27
2023-03-27T04:26:30.344Z,6.78
2023-03-27T04:29:26.307Z,13.18
2023-03-27T04:32:01.144Z,9.32
2023-03-27T04:34:46.814Z,9.27
2023-03-27T04:37:36.758Z,11.88
2023-03-27T04:40:15.382Z,10.38
2023-03-27T04:42:47.190Z,13.02
2023-03-27T04:45:20.793Z,7.22
2023-03-27T04:47:55.053Z,9.55
2023-03-27T04:50:27.006Z,8.10
2023-03-27T04:52:58.858Z,5.80
2023-03-27T04:55:31.058Z,8.23
2023-03-27T04:58:02.640Z,9.40
2023-03-27T05:00:30.618Z,7.75
2023-03-27T05:03:13.048Z,13.45
2023-03-27T05:05:53.250Z,7.63
2023-03-27T05:08:20.112Z,8.13
2023-03-27T05:10:47.178Z,9.98
2023-03-27T05:13:17.457Z,13.20
2023-03-27T05:15:44.936Z,15.13
2023-03-27T05:18:16.188Z,14.20
2023-03-27T05:20:49.831Z,5.95
2023-03-27T05:23:17.748Z,10.50
2023-03-27T05:26:00.138Z,14.38
2023-03-27T05:28:40.048Z,11.95
2023-03-27T05:31:11.066Z,9.43
2023-03-27T05:33:50.443Z,9.85
2023-03-27T05:36:19.180Z,12.55
2023-03-27T05:38:49.618Z,8.13
2023-03-27T05:41:33.057Z,10.95
2023-03-27T05:44:02.592Z,7.70
2023-03-27T05:46:43.394Z,9.20
2023-03-27T05:49:17.223Z,10.98
2023-03-27T05:51:48.361Z,9.18
2023-03-27T05:54:20.323Z,4.75
2023-03-27T05:56:53.025Z,13.60
2023-03-27T05:59:20.360Z,8.73
2023-03-27T06:01:49.657Z,5.70
2023-03-27T06:04:26.238Z,16.75
2023-03-27T06:07:06.300Z,8.93
2023-03-27T06:09:37.722Z,6.50
2023-03-27T06:12:25.267Z,7.63
2023-03-27T06:14:59.857Z,5.18
2023-03-27T06:17:40.586Z,7.30
2023-03-27T06:20:28.640Z,8.48
2023-03-27T06:22:59.752Z,8.50
2023-03-27T06:25:33.540Z,11.65
2023-03-27T06:28:02.380Z,12.88
2023-03-27T06:30:31.794Z,9.38
2023-03-27T06:33:22.383Z,8.07
2023-03-27T06:35:53.972Z,16.20
2023-03-27T06:38:33.223Z,12.00
2023-03-27T06:41:01.593Z,9.52
2023-03-27T06:44:00.932Z,8.40
2023-03-27T06:46:48.156Z,4.72
2023-03-27T06:49:51.057Z,10.45
2023-03-27T06:52:29.498Z,6.80
2023-03-27T06:55:08.895Z,25.35
2023-03-27T06:57:52.451Z,5.85
2023-03-27T07:00:25.975Z,7.05
2023-03-27T07:03:12.018Z,14.95
2023-03-27T07:05:57.531Z,5.05
2023-03-27T07:08:29.794Z,13.35
2023-03-27T07:13:40.232Z,17.38
2023-03-27T07:16:15.244Z,11.75
2023-03-27T07:18:42.615Z,9.90
2023-03-27T07:21:10.394Z,8.55
2023-03-27T07:23:37.644Z,7.38
2023-03-27T07:26:08.062Z,13.80
2023-03-27T07:29:11.347Z,27.65
2023-03-27T07:31:55.328Z,11.25
2023-03-27T07:34:35.217Z,11.15
2023-03-27T07:37:22.793Z,16.20
2023-03-27T07:40:13.852Z,6.20
2023-03-27T07:42:45.886Z,24.30
2023-03-27T07:45:20.513Z,30.10
2023-03-27T07:47:49.871Z,8.75
2023-03-27T07:50:20.842Z,11.65
2023-03-27T07:52:50.030Z,8.38
2023-03-27T07:55:19.148Z,8.65
2023-03-27T07:58:01.808Z,14.48
2023-03-27T08:00:34.158Z,13.25
2023-03-27T08:03:16.756Z,6.57
2023-03-27T08:05:56.645Z,9.10
2023-03-27T08:08:26.754Z,12.52
2023-03-27T08:11:00.313Z,10.25
2023-03-27T08:13:31.568Z,15.90
2023-03-27T08:16:07.958Z,12.00
2023-03-27T08:18:37.294Z,13.73
2023-03-27T08:21:08.636Z,28.30
2023-03-27T08:23:38.136Z,10.63
2023-03-27T08:26:17.289Z,9.63
2023-03-27T08:28:54.360Z,8.88
2023-03-27T08:31:25.762Z,8.65
2023-03-27T08:33:57.684Z,11.77
2023-03-27T08:36:28.131Z,10.98
2023-03-27T08:38:55.843Z,7.63
2023-03-27T08:41:40.942Z,9.73
2023-03-27T08:44:16.231Z,4.43
2023-03-27T08:52:24.276Z,9.70
2023-03-27T08:54:59.442Z,7.38
2023-03-27T08:57:37.719Z,11.63
2023-03-27T09:00:27.228Z,12.18
2023-03-27T09:03:29.088Z,9.38
2023-03-27T09:06:03.879Z,10.43
2023-03-27T09:08:34.895Z,8.30
2023-03-27T09:11:21.238Z,13.35
2023-03-27T09:13:55.783Z,13.00
2023-03-27T09:16:28.292Z,8.82
2023-03-27T09:19:36.512Z,12.57
2023-03-27T09:22:41.215Z,6.60
2023-03-27T09:25:38.098Z,7.35
2023-03-27T09:28:30.712Z,7.72
2023-03-27T09:31:19.024Z,10.02
2023-03-27T09:33:46.993Z,10.23
2023-03-27T09:36:13.781Z,8.75
2023-03-27T09:38:50.631Z,10.35
2023-03-27T09:41:27.118Z,6.03
2023-03-27T09:44:09.392Z,11.43
2023-03-27T09:46:46.675Z,10.30
2023-03-27T09:49:18.634Z,8.73
2023-03-27T09:51:53.943Z,5.38
2023-03-27T09:54:54.745Z,5.03
2023-03-27T09:57:40.624Z,9.93
2023-03-27T10:00:30.914Z,5.00
2023-03-27T10:03:08.577Z,8.52
2023-03-27T10:05:39.617Z,6.18
2023-03-27T10:08:32.536Z,6.03
2023-03-27T10:11:16.879Z,14.52
2023-03-27T10:13:54.798Z,10.25
2023-03-27T10:16:25.825Z,4.47
2023-03-27T10:19:18.395Z,3.72
2023-03-27T10:21:45.926Z,7.63
2023-03-27T10:24:33.526Z,9.30
2023-03-27T10:27:35.307Z,6.82
2023-03-27T10:30:33.722Z,3.28
2023-03-27T10:33:15.860Z,4.97
2023-03-27T10:35:55.119Z,6.80
2023-03-27T10:38:32.958Z,3.53
2023-03-27T10:41:28.711Z,7.83
2023-03-27T10:43:59.101Z,3.58
2023-03-27T10:46:29.004Z,4.03
2023-03-27T10:49:25.670Z,4.35
2023-03-27T10:51:57.479Z,9.18
2023-03-27T10:54:42.905Z,9.38
2023-03-27T10:57:22.887Z,5.32
2023-03-27T11:00:01.435Z,4.32
2023-03-27T11:02:57.786Z,7.57
2023-03-27T11:05:40.193Z,4.25
2023-03-27T11:08:25.869Z,4.22
2023-03-27T11:11:07.676Z,8.27
2023-03-27T11:13:43.484Z,7.82
2023-03-27T11:16:27.486Z,5.50
2023-03-27T11:19:26.502Z,2.70
2023-03-27T11:22:16.909Z,2.60
2023-03-27T11:24:55.579Z,4.38
2023-03-27T11:27:58.379Z,4.90
2023-03-27T11:30:56.205Z,2.10
2023-03-27T11:33:34.525Z,3.15
2023-03-27T11:36:20.978Z,4.97
2023-03-27T11:39:09.456Z,3.03
2023-03-27T11:41:36.552Z,4.47
2023-03-27T11:44:04.181Z,3.33
2023-03-27T11:46:49.547Z,4.03
2023-03-27T11:49:37.928Z,1.98
2023-03-27T11:52:40.523Z,2.13
2023-03-27T11:55:31.354Z,4.68
2023-03-27T11:58:29.010Z,3.55
2023-03-27T12:01:16.582Z,2.97
2023-03-27T12:04:09.978Z,1.40
2023-03-27T12:07:47.944Z,5.68
2023-03-27T12:10:29.401Z,2.05
2023-03-27T12:13:47.774Z,2.63
2023-03-27T12:16:35.762Z,1.63
2023-03-27T12:19:29.968Z,0.70
2023-03-27T12:22:24.563Z,1.63
2023-03-27T12:25:37.759Z,4.90
2023-03-27T12:29:23.631Z,1.88
2023-03-27T12:32:22.285Z,2.60
2023-03-27T12:34:58.973Z,2.20
2023-03-27T12:37:47.885Z,3.70
2023-03-27T12:40:37.893Z,4.07
2023-03-27T12:43:23.394Z,4.22
2023-03-27T12:46:24.374Z,5.13
2023-03-27T12:49:05.860Z,3.33
2023-03-27T12:51:48.340Z,2.47
2023-03-27T12:54:28.693Z,0.60
2023-03-27T12:57:21.253Z,0.40
2023-03-27T12:59:53.619Z,0.88
2023-03-27T13:02:40.995Z,1.85
2023-03-27T13:05:24.108Z,2.83
2023-03-27T13:08:19.022Z,3.15
2023-03-27T13:11:27.207Z,2.35
2023-03-27T13:14:32.974Z,2.15
2023-03-27T13:17:37.228Z,2.88
2023-03-27T13:20:35.159Z,1.92
2023-03-27T13:23:43.559Z,2.75
2023-03-27T13:26:46.232Z,2.05
2023-03-27T13:29:23.344Z,2.20
2023-03-27T13:32:31.083Z,3.22
2023-03-27T13:35:41.378Z,2.65
2023-03-27T13:38:12.373Z,4.20
2023-03-27T13:41:36.147Z,9.32
2023-03-27T13:44:12.489Z,0.25
2023-03-27T13:46:48.075Z,8.93
2023-03-27T13:49:18.293Z,7.07
2023-03-27T13:52:44.868Z,7.00
2023-03-27T13:55:46.556Z,5.35
2023-03-27T13:59:22.321Z,4.53
2023-03-27T14:02:22.572Z,1.38
2023-03-27T14:05:18.764Z,2.55
2023-03-27T14:08:02.195Z,3.17
2023-03-27T14:11:08.215Z,8.43
2023-03-27T14:14:03.394Z,15.45
2023-03-27T14:16:39.505Z,1.92
2023-03-27T14:19:38.233Z,3.30
2023-03-27T14:22:20.345Z,1.35
2023-03-27T14:25:00.977Z,2.85
2023-03-27T14:27:35.348Z,2.05
2023-03-27T14:30:07.597Z,2.85
2023-03-27T14:32:36.652Z,3.67
2023-03-27T14:35:07.353Z,3.50
2023-03-27T14:37:41.987Z,5.25
2023-03-27T14:40:37.984Z,2.58
2023-03-27T14:43:07.402Z,1.52
2023-03-27T14:45:40.278Z,2.75
2023-03-27T14:48:23.834Z,2.88
2023-03-27T14:50:58.200Z,2.42
2023-03-27T14:53:31.547Z,2.35
2023-03-27T14:56:28.755Z,2.38
2023-03-27T14:59:13.220Z,2.05
2023-03-27T15:01:52.254Z,3.20
2023-03-27T15:04:19.603Z,9.35
2023-03-27T15:06:50.184Z,4.55
2023-03-27T15:09:44.230Z,0.90
2023-03-27T15:12:28.333Z,0.75
2023-03-27T15:14:59.485Z,2.25
2023-03-27T15:17:28.587Z,2.80
2023-03-27T15:20:14.659Z,1.65
2023-03-27T15:22:47.435Z,1.60
2023-03-27T15:25:20.467Z,2.65
2023-03-27T15:27:53.171Z,6.78
2023-03-27T15:30:27.324Z,6.15
2023-03-27T15:33:02.161Z,3.72
2023-03-27T15:35:35.946Z,3.97
2023-03-27T15:38:06.994Z,3.00
2023-03-27T15:40:38.160Z,2.58
2023-03-27T15:43:27.533Z,6.72
2023-03-27T15:45:58.812Z,3.20
2023-03-27T15:48:37.104Z,2.53
2023-03-27T15:51:06.428Z,1.17
2023-03-27T15:53:40.873Z,4.90
2023-03-27T15:56:15.990Z,2.28
2023-03-27T15:58:59.530Z,3.10
2023-03-27T16:01:33.823Z,1.80
2023-03-27T16:04:06.713Z,3.65
2023-03-27T16:06:37.695Z,2.47
2023-03-27T16:09:10.159Z,3.05
2023-03-27T16:11:40.093Z,0.93
2023-03-27T16:14:32.544Z,2.35
2023-03-27T16:17:11.774Z,4.57
2023-03-27T16:19:58.527Z,3.28
2023-03-27T16:22:34.489Z,10.40
2023-03-27T16:25:05.910Z,9.70
2023-03-27T16:27:38.585Z,6.35
2023-03-27T16:30:39.564Z,2.17
2023-03-27T16:33:16.819Z,5.72
2023-03-27T16:35:44.317Z,1.42
2023-03-27T16:38:12.388Z,0.45
2023-03-27T16:40:41.549Z,2.35
2023-03-27T16:43:08.661Z,5.47
2023-03-27T16:45:37.529Z,3.90
2023-03-27T16:48:05.367Z,3.25
2023-03-27T16:50:32.488Z,2.10
2023-03-27T16:52:59.445Z,1.20
2023-03-27T16:55:26.360Z,8.02
2023-03-27T16:57:54.269Z,7.60
2023-03-27T17:00:21.859Z,3.60
2023-03-27T17:02:48.735Z,1.77
2023-03-27T17:05:16.236Z,3.80
2023-03-27T17:07:44.699Z,5.07
2023-03-27T17:10:11.507Z,4.18
2023-03-27T17:12:41.198Z,7.75
2023-03-27T17:15:08.521Z,6.18
2023-03-27T17:17:35.715Z,2.08
2023-03-27T17:20:03.902Z,1.10
2023-03-27T17:22:31.957Z,4.22
2023-03-27T17:25:01.226Z,6.25
2023-03-27T17:27:28.352Z,3.20
2023-03-27T17:29:57.900Z,0.65
2023-03-27T17:32:27.988Z,1.08
2023-03-27T17:34:55.345Z,1.65
2023-03-27T17:37:23.973Z,2.15
2023-03-27T17:39:51.181Z,1.05
2023-03-27T17:42:18.177Z,2.22
2023-03-27T17:44:45.328Z,1.65
2023-03-27T17:47:12.609Z,2.95
2023-03-27T17:49:39.818Z,3.92
2023-03-27T17:52:11.187Z,0.70
2023-03-27T17:54:38.492Z,4.85
2023-03-27T17:57:05.957Z,0.68
2023-03-27T17:59:32.824Z,3.47
2023-03-27T18:02:00.393Z,0.47
2023-03-27T18:04:27.759Z,0.65
2023-03-27T18:06:54.619Z,0.38
2023-03-27T18:09:21.593Z,1.35
2023-03-27T18:11:52.044Z,3.75
2023-03-27T18:14:18.859Z,1.45
2023-03-27T18:16:46.287Z,1.73
2023-03-27T18:19:13.531Z,1.00
2023-03-27T18:21:40.284Z,1.67
2023-03-27T18:24:07.450Z,10.73
2023-03-27T18:26:34.327Z,3.33
2023-03-27T18:29:01.204Z,3.50
2023-03-27T18:31:28.093Z,0.70
2023-03-27T18:33:55.075Z,1.20
2023-03-27T18:36:22.122Z,1.88
2023-03-27T18:38:50.071Z,2.20
2023-03-27T18:41:16.914Z,1.23
2023-03-27T18:43:43.584Z,3.22
2023-03-27T18:46:16.449Z,1.90
2023-03-27T18:48:44.268Z,3.47
2023-03-27T18:51:12.069Z,3.30
2023-03-27T18:53:38.901Z,3.92
2023-03-27T18:56:06.224Z,0.90
2023-03-27T18:58:32.980Z,0.88
2023-03-27T19:01:00.005Z,2.83
2023-03-27T19:03:30.318Z,2.63
2023-03-27T19:06:01.225Z,1.13
2023-03-27T19:08:27.960Z,1.48
2023-03-27T19:10:55.954Z,0.95
2023-03-27T19:13:42.960Z,2.92
2023-03-27T19:16:30.720Z,1.48
2023-03-27T19:19:36.277Z,2.33
2023-03-27T19:22:26.219Z,3.65
2023-03-27T19:24:59.547Z,1.63
2023-03-27T19:27:28.224Z,3.03
2023-03-27T19:30:07.435Z,4.70
2023-03-27T19:32:34.249Z,2.05
2023-03-27T19:35:01.931Z,5.07
2023-03-27T19:37:29.706Z,4.50
2023-03-27T19:39:57.002Z,1.38
2023-03-27T19:42:23.857Z,0.47
2023-03-27T19:44:50.566Z,2.53
2023-03-27T19:47:17.623Z,4.60
2023-03-27T19:49:44.417Z,2.75
2023-03-27T19:52:18.646Z,3.55
2023-03-27T19:54:46.012Z,2.75
2023-03-27T19:57:12.720Z,4.82
2023-03-27T19:59:39.555Z,4.10
2023-03-27T20:02:06.772Z,2.10
2023-03-27T20:04:33.430Z,5.80
2023-03-27T20:07:02.135Z,3.13
2023-03-27T20:09:29.058Z,4.70
2023-03-27T20:11:57.045Z,4.20
2023-03-27T20:14:23.900Z,2.40
2023-03-27T20:16:51.096Z,1.95
2023-03-27T20:19:18.361Z,3.75
2023-03-27T20:21:46.735Z,5.75
2023-03-27T20:24:17.301Z,4.20
2023-03-27T20:26:52.376Z,2.60
2023-03-27T20:29:24.445Z,2.17
2023-03-27T20:31:51.350Z,5.15
2023-03-27T20:34:20.019Z,2.95
2023-03-27T20:36:47.428Z,4.15
2023-03-27T20:39:22.733Z,5.93
2023-03-27T20:41:51.316Z,1.95
2023-03-27T20:44:20.588Z,4.13
2023-03-27T20:46:51.102Z,2.60
2023-03-27T20:49:40.052Z,1.05
2023-03-27T20:52:08.595Z,2.53
2023-03-27T20:54:35.922Z,0.30
2023-03-27T20:57:03.268Z,2.63
2023-03-27T20:59:31.432Z,11.00
2023-03-27T21:01:59.352Z,3.47
2023-03-27T21:04:28.377Z,3.50
2023-03-27T21:06:55.863Z,1.48
2023-03-27T21:09:23.680Z,3.03
2023-03-27T21:11:53.522Z,4.10
2023-03-27T21:14:22.783Z,5.28
2023-03-27T21:16:49.849Z,4.22
2023-03-27T21:19:17.200Z,2.08
2023-03-27T21:21:45.486Z,1.00
2023-03-27T21:24:13.285Z,1.45
2023-03-27T21:26:40.559Z,2.47
2023-03-27T21:29:10.718Z,2.75
2023-03-27T21:31:39.158Z,4.35
2023-03-27T21:34:06.363Z,3.78
2023-03-27T21:36:33.479Z,5.03
2023-03-27T21:39:01.060Z,4.43
2023-03-27T21:41:27.854Z,3.40
2023-03-27T21:43:54.554Z,3.65
2023-03-27T21:46:22.027Z,1.73
2023-03-27T21:48:52.416Z,1.15
2023-03-27T21:51:19.724Z,6.68
2023-03-27T21:53:46.520Z,2.95
2023-03-27T21:56:13.498Z,3.60
2023-03-27T21:58:40.295Z,4.72
2023-03-27T22:01:07.444Z,9.10
2023-03-27T22:03:34.270Z,5.32
2023-03-27T22:06:11.637Z,3.88
2023-03-27T22:08:40.424Z,1.67
2023-03-27T22:11:10.417Z,3.67
2023-03-27T22:13:37.978Z,8.70
2023-03-27T22:16:13.765Z,4.97
2023-03-27T22:18:41.347Z,3.95
2023-03-27T22:21:19.344Z,7.05
2023-03-27T22:23:46.506Z,3.97
2023-03-27T22:26:13.280Z,3.47
2023-03-27T22:28:40.041Z,2.60
2023-03-27T22:31:07.603Z,4.03
2023-03-27T22:33:35.481Z,3.22
2023-03-27T22:36:03.090Z,4.97
2023-03-27T22:38:31.835Z,2.50
2023-03-27T22:40:59.698Z,6.13
2023-03-27T22:43:29.075Z,9.18
2023-03-27T22:45:56.004Z,8.70
2023-03-27T22:48:22.785Z,3.38
2023-03-27T22:50:56.846Z,4.00
2023-03-27T22:53:25.404Z,6.53
2023-03-27T22:55:54.270Z,4.07
2023-03-27T22:58:22.352Z,4.20
2023-03-27T23:00:51.139Z,3.97
2023-03-27T23:03:19.496Z,7.38
2023-03-27T23:05:54.326Z,7.15
2023-03-27T23:08:24.302Z,4.15
2023-03-27T23:10:59.273Z,3.45
2023-03-27T23:13:28.727Z,9.85
2023-03-27T23:15:56.148Z,6.88
2023-03-27T23:18:27.312Z,4.78
2023-03-27T23:20:58.879Z,5.60
2023-03-27T23:23:27.877Z,5.60
2023-03-27T23:25:56.272Z,1.33
2023-03-27T23:28:23.905Z,6.03
2023-03-27T23:30:59.747Z,6.10
2023-03-27T23:33:28.423Z,3.15
2023-03-27T23:36:02.952Z,3.97
2023-03-27T23:38:30.419Z,7.65
2023-03-27T23:41:00.130Z,4.22
2023-03-27T23:43:29.911Z,7.05
2023-03-27T23:45:59.507Z,1.55
2023-03-27T23:50:56.190Z,2.38
2023-03-27T23:53:27.926Z,4.53
2023-03-27T23:55:56.536Z,5.53
2023-03-27T23:58:28.810Z,6.25
